Monroeville, Ohio
Current Conditions -  °F | °C
As of 3:32 AM on Saturday 29 Nov 2014 (Local Time) from KPCW Reporting Station
Broken Clouds Broken Clouds  
Wind Chill: 26°   Ceiling: 11000
Heat Index: 34°   Visibility: 10mi
Dew Point: 23°   Wind: 9mph
Humidity: 65%   Direction: 180°S
Pressure: 30.05"   Gusts: NA
Location:  41.24°N, 82.7°W
Report Text: KPCW 290832Z AUTO 18008KT 10SM FEW036 SCT095 BKN110 01/M05 A3005 RMK AO2
Loading
Personal Weather Stations






























Interactive Weather Map New forecast layout! Learn more

10-Day Weather Forecast

Advertisements
Track Severe Weather on mobile